Time,TemperatureF,DewpointF,PressureIn,WindDirection,WindDirectionDegrees,WindSpeedMPH,WindSpeedGustMPH,Humidity,HourlyPrecipIn,Conditions,Clouds,dailyrainin,SoftwareType,DateUTC
2013-02-18 00:00:00,9.3,0.0,29.64,NW,317,24.0,43.0,65,0.00,,,0.00,weatherlink.com 1.10,2013-02-18 05:00:00,
2013-02-18 00:15:00,9.1,-1.0,29.64,NW,314,32.0,43.0,65,0.00,,,0.00,weatherlink.com 1.10,2013-02-18 05:15:00,
2013-02-18 00:30:00,8.9,0.0,29.63,NW,306,21.0,44.0,66,0.00,,,0.00,weatherlink.com 1.10,2013-02-18 05:30:00,
2013-02-18 00:46:00,8.6,0.0,29.64,NNW,329,24.0,38.0,68,0.00,,,0.00,weatherlink.com 1.10,2013-02-18 05:46:00,
2013-02-18 01:01:00,8.4,0.0,29.66,NNW,328,22.0,39.0,69,0.00,,,0.00,weatherlink.com 1.10,2013-02-18 06:01:00,
2013-02-18 01:16:00,8.8,1.0,29.66,SW,227,31.0,40.0,71,0.00,,,0.00,weatherlink.com 1.10,2013-02-18 06:16:00,
2013-02-18 01:31:00,8.7,1.0,29.68,SW,230,15.0,41.0,72,0.00,,,0.00,weatherlink.com 1.10,2013-02-18 06:31:00,
2013-02-18 01:46:00,8.4,1.0,29.68,WSW,247,17.0,36.0,73,0.00,,,0.00,weatherlink.com 1.10,2013-02-18 06:46:00,
2013-02-18 02:01:00,8.4,1.0,29.69,WSW,257,18.0,39.0,72,0.00,,,0.00,weatherlink.com 1.10,2013-02-18 07:01:00,
2013-02-18 02:16:00,8.4,1.0,29.68,West,262,30.0,42.0,72,0.00,,,0.00,weatherlink.com 1.10,2013-02-18 07:16:00,
2013-02-18 02:31:00,8.2,1.0,29.68,West,259,24.0,48.0,72,0.00,,,0.00,weatherlink.com 1.10,2013-02-18 07:31:00,
2013-02-18 02:46:00,8.2,1.0,29.70,WNW,282,22.0,41.0,72,0.00,,,0.00,weatherlink.com 1.10,2013-02-18 07:46:00,
2013-02-18 03:01:00,8.1,1.0,29.71,SW,234,20.0,39.0,72,0.00,,,0.00,weatherlink.com 1.10,2013-02-18 08:01:00,
2013-02-18 03:16:00,7.9,1.0,29.72,WNW,303,15.0,40.0,72,0.00,,,0.00,weatherlink.com 1.10,2013-02-18 08:16:00,
2013-02-18 03:31:00,7.7,0.0,29.73,SW,225,14.0,44.0,72,0.00,,,0.00,weatherlink.com 1.10,2013-02-18 08:31:00,
2013-02-18 03:46:00,7.6,1.0,29.73,WSW,251,19.0,38.0,73,0.00,,,0.00,weatherlink.com 1.10,2013-02-18 08:46:00,
2013-02-18 04:02:00,7.4,0.0,29.74,SW,224,22.0,44.0,73,0.00,,,0.00,weatherlink.com 1.10,2013-02-18 09:02:00,
2013-02-18 04:17:00,5.6,-1.0,29.75,West,269,27.0,49.0,73,0.00,,,0.00,weatherlink.com 1.10,2013-02-18 09:17:00,
2013-02-18 04:32:00,5.5,-1.0,29.75,WSW,257,45.0,50.0,73,0.00,,,0.00,weatherlink.com 1.10,2013-02-18 09:32:00,
2013-02-18 04:47:00,5.3,-2.0,29.78,WNW,288,35.0,46.0,73,0.00,,,0.00,weatherlink.com 1.10,2013-02-18 09:47:00,
2013-02-18 05:02:00,5.1,-2.0,29.80,West,273,36.0,44.0,73,0.00,,,0.00,weatherlink.com 1.10,2013-02-18 10:02:00,
2013-02-18 05:17:00,5.1,-2.0,29.80,West,270,39.0,43.0,73,0.00,,,0.00,weatherlink.com 1.10,2013-02-18 10:17:00,
2013-02-18 05:32:00,4.9,-2.0,29.80,WNW,282,28.0,50.0,73,0.00,,,0.00,weatherlink.com 1.10,2013-02-18 10:32:00,
2013-02-18 05:47:00,4.8,-2.0,29.82,WSW,250,29.0,47.0,74,0.00,,,0.00,weatherlink.com 1.10,2013-02-18 10:47:00,
2013-02-18 06:02:00,4.8,-2.0,29.82,NNW,331,40.0,46.0,74,0.00,,,0.00,weatherlink.com 1.10,2013-02-18 11:02:00,
2013-02-18 06:18:00,4.8,-2.0,29.84,WNW,286,31.0,51.0,74,0.00,,,0.00,weatherlink.com 1.10,2013-02-18 11:18:00,
2013-02-18 06:32:00,4.8,-2.0,29.84,WNW,292,38.0,48.0,74,0.00,,,0.00,weatherlink.com 1.10,2013-02-18 11:32:00,
2013-02-18 06:47:00,4.6,-2.0,29.86,West,275,22.0,44.0,75,0.00,,,0.00,weatherlink.com 1.10,2013-02-18 11:47:00,
2013-02-18 07:02:00,6.2,0.0,29.87,NW,311,17.0,37.0,75,0.00,,,0.00,weatherlink.com 1.10,2013-02-18 12:02:00,
2013-02-18 07:17:00,5.7,-2.0,29.88,WNW,283,16.0,35.0,72,0.00,,,0.00,weatherlink.com 1.10,2013-02-18 12:17:00,
2013-02-18 07:33:00,5.8,-1.0,29.90,WNW,282,21.0,34.0,72,0.00,,,0.00,weatherlink.com 1.10,2013-02-18 12:33:00,
2013-02-18 07:48:00,9.4,0.0,29.91,SW,235,0.0,12.0,65,0.00,,,0.00,weatherlink.com 1.10,2013-02-18 12:48:00,
2013-02-18 08:03:00,10.2,0.0,29.92,WNW,298,1.0,12.0,63,0.00,,,0.00,weatherlink.com 1.10,2013-02-18 13:03:00,
2013-02-18 08:18:00,10.8,0.0,29.92,SE,129,2.0,16.0,62,0.00,,,0.00,weatherlink.com 1.10,2013-02-18 13:18:00,
2013-02-18 08:33:00,11.4,0.0,29.92,SSE,163,0.0,11.0,61,0.00,,,0.00,weatherlink.com 1.10,2013-02-18 13:33:00,
2013-02-18 08:48:00,12.3,0.0,29.93,SW,233,7.0,14.0,59,0.00,,,0.00,weatherlink.com 1.10,2013-02-18 13:48:00,
2013-02-18 09:03:00,13.2,1.0,29.94,WSW,254,3.0,15.0,58,0.00,,,0.00,weatherlink.com 1.10,2013-02-18 14:03:00,
2013-02-18 09:18:00,14.1,1.0,29.94,NE,34,4.0,15.0,57,0.00,,,0.00,weatherlink.com 1.10,2013-02-18 14:18:00,
2013-02-18 09:33:00,15.1,2.0,29.94,NW,304,4.0,12.0,57,0.00,,,0.00,weatherlink.com 1.10,2013-02-18 14:33:00,
2013-02-18 09:48:00,10.3,0.0,29.95,WNW,297,23.0,36.0,63,0.00,,,0.00,weatherlink.com 1.10,2013-02-18 14:48:00,
2013-02-18 10:03:00,11.0,0.0,29.96,WNW,303,27.0,34.0,62,0.00,,,0.00,weatherlink.com 1.10,2013-02-18 15:03:00,
2013-02-18 10:18:00,12.0,0.0,29.96,NNW,339,14.0,31.0,60,0.00,,,0.00,weatherlink.com 1.10,2013-02-18 15:18:00,
2013-02-18 10:34:00,13.0,1.0,29.96,NNW,338,24.0,32.0,58,0.00,,,0.00,weatherlink.com 1.10,2013-02-18 15:34:00,
2013-02-18 10:49:00,13.9,1.0,29.95,WNW,294,24.0,36.0,56,0.00,,,0.00,weatherlink.com 1.10,2013-02-18 15:49:00,
2013-02-18 11:04:00,14.7,1.0,29.96,WNW,297,25.0,35.0,54,0.00,,,0.00,weatherlink.com 1.10,2013-02-18 16:04:00,
2013-02-18 11:19:00,15.4,1.0,29.96,West,281,11.0,31.0,52,0.00,,,0.00,weatherlink.com 1.10,2013-02-18 16:19:00,
2013-02-18 11:34:00,15.8,0.0,29.95,West,263,20.0,33.0,50,0.00,,,0.00,weatherlink.com 1.10,2013-02-18 16:34:00,
2013-02-18 11:49:00,16.6,0.0,29.96,NW,307,8.0,29.0,49,0.00,,,0.00,weatherlink.com 1.10,2013-02-18 16:49:00,
2013-02-18 12:04:00,17.2,-1.0,29.98,West,279,25.0,30.0,45,0.00,,,0.00,weatherlink.com 1.10,2013-02-18 17:04:00,
2013-02-18 12:34:00,18.7,-2.0,29.98,West,274,17.0,25.0,40,0.00,,,0.00,weatherlink.com 1.10,2013-02-18 17:34:00,
2013-02-18 12:49:00,19.2,-1.0,30.00,West,263,23.0,31.0,41,0.00,,,0.00,weatherlink.com 1.10,2013-02-18 17:49:00,
2013-02-18 13:19:00,20.2,-2.0,29.99,NW,325,21.0,29.0,37,0.00,,,0.00,weatherlink.com 1.10,2013-02-18 18:19:00,
2013-02-18 13:34:00,20.5,-3.0,30.00,NNW,342,14.0,25.0,36,0.00,,,0.00,weatherlink.com 1.10,2013-02-18 18:34:00,
2013-02-18 13:49:00,20.7,-3.0,30.00,West,277,19.0,28.0,35,0.00,,,0.00,weatherlink.com 1.10,2013-02-18 18:49:00,
2013-02-18 14:05:00,20.6,-4.0,30.00,ENE,65,9.0,33.0,34,0.00,,,0.00,weatherlink.com 1.10,2013-02-18 19:05:00,
2013-02-18 14:20:00,20.8,-4.0,30.01,NW,320,24.0,30.0,33,0.00,,,0.00,weatherlink.com 1.10,2013-02-18 19:20:00,
2013-02-18 14:35:00,21.0,-5.0,30.01,NW,326,14.0,31.0,31,0.00,,,0.00,weatherlink.com 1.10,2013-02-18 19:35:00,
2013-02-18 14:50:00,20.9,-6.0,30.01,NW,324,10.0,34.0,30,0.00,,,0.00,weatherlink.com 1.10,2013-02-18 19:50:00,
2013-02-18 15:05:00,21.3,-7.0,30.02,WNW,289,27.0,35.0,29,0.00,,,0.00,weatherlink.com 1.10,2013-02-18 20:05:00,
2013-02-18 15:20:00,21.5,-7.0,30.02,West,272,21.0,30.0,28,0.00,,,0.00,weatherlink.com 1.10,2013-02-18 20:20:00,
2013-02-18 15:35:00,21.5,-8.0,30.03,WNW,300,20.0,36.0,27,0.00,,,0.00,weatherlink.com 1.10,2013-02-18 20:35:00,
2013-02-18 15:50:00,21.7,-7.0,30.03,NNW,334,12.0,28.0,28,0.00,,,0.00,weatherlink.com 1.10,2013-02-18 20:50:00,
2013-02-18 16:05:00,21.7,-8.0,30.03,NW,318,18.0,31.0,27,0.00,,,0.00,weatherlink.com 1.10,2013-02-18 21:05:00,
2013-02-18 16:21:00,21.8,-8.0,30.04,NW,323,9.0,34.0,26,0.00,,,0.00,weatherlink.com 1.10,2013-02-18 21:21:00,
2013-02-18 16:35:00,21.8,-9.0,30.05,NNW,346,19.0,31.0,25,0.00,,,0.00,weatherlink.com 1.10,2013-02-18 21:35:00,
2013-02-18 16:50:00,21.7,-8.0,30.04,WNW,300,13.0,33.0,26,0.00,,,0.00,weatherlink.com 1.10,2013-02-18 21:50:00,
2013-02-18 17:05:00,20.6,-8.0,30.05,WSW,257,25.0,43.0,28,0.00,,,0.00,weatherlink.com 1.10,2013-02-18 22:05:00,
2013-02-18 17:20:00,20.2,-7.0,30.04,WNW,290,26.0,48.0,29,0.00,,,0.00,weatherlink.com 1.10,2013-02-18 22:20:00,
2013-02-18 17:36:00,20.0,-8.0,30.05,WNW,294,30.0,43.0,29,0.00,,,0.00,weatherlink.com 1.10,2013-02-18 22:36:00,
2013-02-18 17:51:00,19.8,-7.0,30.06,West,279,28.0,45.0,30,0.00,,,0.00,weatherlink.com 1.10,2013-02-18 22:51:00,
2013-02-18 18:06:00,19.7,-8.0,30.06,WNW,286,26.0,45.0,29,0.00,,,0.00,weatherlink.com 1.10,2013-02-18 23:06:00,
2013-02-18 18:21:00,20.7,-8.0,30.07,West,267,22.0,45.0,28,0.00,,,0.00,weatherlink.com 1.10,2013-02-18 23:21:00,
2013-02-18 18:36:00,20.3,-8.0,30.08,NNW,334,16.0,35.0,28,0.00,,,0.00,weatherlink.com 1.10,2013-02-18 23:36:00,
2013-02-18 18:51:00,19.9,-7.0,30.08,WNW,298,12.0,31.0,30,0.00,,,0.00,weatherlink.com 1.10,2013-02-18 23:51:00,
2013-02-18 19:06:00,19.8,-8.0,30.09,NNW,330,8.0,31.0,29,0.00,,,0.00,weatherlink.com 1.10,2013-02-19 00:06:00,
2013-02-18 19:21:00,19.7,-7.0,30.09,NW,308,18.0,38.0,30,0.00,,,0.00,weatherlink.com 1.10,2013-02-19 00:21:00,
2013-02-18 19:36:00,19.6,-7.0,30.10,West,280,12.0,32.0,30,0.00,,,0.00,weatherlink.com 1.10,2013-02-19 00:36:00,
2013-02-18 19:51:00,19.4,-7.0,30.11,NNW,336,13.0,29.0,30,0.00,,,0.00,weatherlink.com 1.10,2013-02-19 00:51:00,
2013-02-18 20:06:00,19.5,-7.0,30.11,West,264,10.0,34.0,30,0.00,,,0.00,weatherlink.com 1.10,2013-02-19 01:06:00,
2013-02-18 20:21:00,19.3,-8.0,30.11,West,275,14.0,33.0,30,0.00,,,0.00,weatherlink.com 1.10,2013-02-19 01:21:00,
2013-02-18 20:36:00,19.1,-7.0,30.11,WNW,288,21.0,24.0,31,0.00,,,0.00,weatherlink.com 1.10,2013-02-19 01:36:00,
2013-02-18 20:52:00,19.1,-7.0,30.12,West,269,14.0,25.0,31,0.00,,,0.00,weatherlink.com 1.10,2013-02-19 01:52:00,
2013-02-18 21:07:00,18.9,-7.0,30.12,WNW,287,8.0,25.0,31,0.00,,,0.00,weatherlink.com 1.10,2013-02-19 02:07:00,
2013-02-18 21:22:00,18.7,-7.0,30.11,West,275,15.0,20.0,31,0.00,,,0.00,weatherlink.com 1.10,2013-02-19 02:22:00,
2013-02-18 21:37:00,18.8,-7.0,30.11,West,279,9.0,25.0,31,0.00,,,0.00,weatherlink.com 1.10,2013-02-19 02:37:00,
2013-02-18 21:52:00,18.9,-8.0,30.12,West,265,8.0,25.0,30,0.00,,,0.00,weatherlink.com 1.10,2013-02-19 02:52:00,
2013-02-18 22:07:00,18.9,-9.0,30.12,WSW,257,6.0,23.0,29,0.00,,,0.00,weatherlink.com 1.10,2013-02-19 03:07:00,
2013-02-18 22:22:00,19.0,-9.0,30.11,West,259,11.0,21.0,29,0.00,,,0.00,weatherlink.com 1.10,2013-02-19 03:22:00,
2013-02-18 22:37:00,18.7,-8.0,30.11,SW,236,10.0,21.0,30,0.00,,,0.00,weatherlink.com 1.10,2013-02-19 03:37:00,
2013-02-18 22:52:00,18.0,-8.0,30.12,WSW,244,16.0,20.0,31,0.00,,,0.00,weatherlink.com 1.10,2013-02-19 03:52:00,
2013-02-18 23:09:00,18.5,-8.0,30.13,WSW,258,13.0,21.0,30,0.00,,,0.00,weatherlink.com 1.10,2013-02-19 04:09:00,
2013-02-18 23:22:00,17.9,-8.0,30.13,WSW,249,11.0,18.0,31,0.00,,,0.00,weatherlink.com 1.10,2013-02-19 04:22:00,
2013-02-18 23:37:00,17.0,-8.0,30.13,West,259,17.0,23.0,33,0.00,,,0.00,weatherlink.com 1.10,2013-02-19 04:37:00,
2013-02-18 23:52:00,17.1,-8.0,30.14,West,261,15.0,24.0,33,0.00,,,0.00,weatherlink.com 1.10,2013-02-19 04:52:00,